sensor_id;sensor_type;location;lat;lon;timestamp;pressure;altitude;pressure_sealevel;temperature;humidity
28310;BME280;15571;50.974;13.936;2022-10-18T03:03:00;101051.94;;;14.69;100.00
28310;BME280;15571;50.974;13.936;2022-10-18T03:06:03;101061.59;;;14.69;100.00
28310;BME280;15571;50.974;13.936;2022-10-18T03:09:08;101059.84;;;14.66;100.00
28310;BME280;15571;50.974;13.936;2022-10-18T03:12:11;101055.44;;;14.65;100.00
28310;BME280;15571;50.974;13.936;2022-10-18T03:15:14;101061.56;;;14.66;100.00
28310;BME280;15571;50.974;13.936;2022-10-18T03:18:18;101066.00;;;14.62;100.00
28310;BME280;15571;50.974;13.936;2022-10-18T03:21:23;101065.16;;;14.61;100.00
28310;BME280;15571;50.974;13.936;2022-10-18T03:24:26;101056.38;;;14.59;100.00
28310;BME280;15571;50.974;13.936;2022-10-18T03:27:28;101059.88;;;14.60;100.00
28310;BME280;15571;50.974;13.936;2022-10-18T03:30:31;101052.88;;;14.57;100.00
28310;BME280;15571;50.974;13.936;2022-10-18T03:33:35;101052.00;;;14.55;100.00
28310;BME280;15571;50.974;13.936;2022-10-18T03:36:48;101057.28;;;14.54;100.00
28310;BME280;15571;50.974;13.936;2022-10-18T03:40:07;101059.94;;;14.54;100.00
28310;BME280;15571;50.974;13.936;2022-10-18T03:43:10;101069.59;;;14.52;100.00
28310;BME280;15571;50.974;13.936;2022-10-18T03:46:16;101065.25;;;14.49;100.00
28310;BME280;15571;50.974;13.936;2022-10-18T03:49:23;101061.75;;;14.45;100.00
28310;BME280;15571;50.974;13.936;2022-10-18T03:52:30;101063.53;;;14.45;100.00
28310;BME280;15571;50.974;13.936;2022-10-18T03:55:38;101067.91;;;14.44;100.00
28310;BME280;15571;50.974;13.936;2022-10-18T03:58:46;101072.31;;;14.42;100.00
28310;BME280;15571;50.974;13.936;2022-10-18T04:01:48;101065.28;;;14.41;100.00
28310;BME280;15571;50.974;13.936;2022-10-18T04:04:52;101061.81;;;14.38;100.00
28310;BME280;15571;50.974;13.936;2022-10-18T04:07:55;101067.97;;;14.38;100.00
28310;BME280;15571;50.974;13.936;2022-10-18T04:10:58;101062.72;;;14.38;100.00
28310;BME280;15571;50.974;13.936;2022-10-18T04:14:02;101058.31;;;14.37;100.00
28310;BME280;15571;50.974;13.936;2022-10-18T04:17:08;101046.91;;;14.37;100.00
28310;BME280;15571;50.974;13.936;2022-10-18T04:20:16;101053.06;;;14.37;100.00
28310;BME280;15571;50.974;13.936;2022-10-18T04:23:18;101050.41;;;14.39;100.00
28310;BME280;15571;50.974;13.936;2022-10-18T04:26:21;101056.56;;;14.39;100.00
28310;BME280;15571;50.974;13.936;2022-10-18T04:29:23;101064.44;;;14.38;100.00
28310;BME280;15571;50.974;13.936;2022-10-18T04:32:26;101065.34;;;14.38;100.00
28310;BME280;15571;50.974;13.936;2022-10-18T04:35:30;101063.59;;;14.37;100.00
28310;BME280;15571;50.974;13.936;2022-10-18T04:38:33;101068.88;;;14.34;100.00
28310;BME280;15571;50.974;13.936;2022-10-18T04:41:38;101060.09;;;14.32;100.00
28310;BME280;15571;50.974;13.936;2022-10-18T04:44:43;101060.09;;;14.32;100.00
28310;BME280;15571;50.974;13.936;2022-10-18T04:47:45;101057.47;;;14.32;100.00
28310;BME280;15571;50.974;13.936;2022-10-18T04:50:50;101062.72;;;14.32;100.00
28310;BME280;15571;50.974;13.936;2022-10-18T04:53:53;101060.97;;;14.34;100.00
28310;BME280;15571;50.974;13.936;2022-10-18T04:56:55;101066.22;;;14.34;100.00
28310;BME280;15571;50.974;13.936;2022-10-18T04:59:58;101074.13;;;14.34;100.00
28310;BME280;15571;50.974;13.936;2022-10-18T05:03:00;101072.38;;;14.36;100.00
28310;BME280;15571;50.974;13.936;2022-10-18T05:06:05;101084.66;;;14.37;100.00
28310;BME280;15571;50.974;13.936;2022-10-18T05:09:08;101074.13;;;14.37;100.00
28310;BME280;15571;50.974;13.936;2022-10-18T05:12:17;101069.75;;;14.36;100.00
28310;BME280;15571;50.974;13.936;2022-10-18T05:15:21;101062.69;;;14.37;100.00
28310;BME280;15571;50.974;13.936;2022-10-18T05:18:23;101061.84;;;14.36;100.00
28310;BME280;15571;50.974;13.936;2022-10-18T05:21:27;101060.94;;;14.36;100.00
28310;BME280;15571;50.974;13.936;2022-10-18T05:24:30;101053.06;;;14.37;100.00
28310;BME280;15571;50.974;13.936;2022-10-18T05:27:33;101051.31;;;14.36;100.00
28310;BME280;15571;50.974;13.936;2022-10-18T05:30:36;101057.44;;;14.38;100.00
28310;BME280;15571;50.974;13.936;2022-10-18T05:33:39;101051.28;;;14.39;100.00
28310;BME280;15571;50.974;13.936;2022-10-18T05:36:43;101056.53;;;14.41;100.00
28310;BME280;15571;50.974;13.936;2022-10-18T05:39:45;101053.00;;;14.43;100.00
28310;BME280;15571;50.974;13.936;2022-10-18T05:42:51;101060.03;;;14.41;100.00
28310;BME280;15571;50.974;13.936;2022-10-18T05:45:53;101051.25;;;14.41;100.00
28310;BME280;15571;50.974;13.936;2022-10-18T05:48:59;101046.88;;;14.40;100.00
28310;BME280;15571;50.974;13.936;2022-10-18T05:52:09;101035.47;;;14.39;100.00
28310;BME280;15571;50.974;13.936;2022-10-18T05:55:11;101042.47;;;14.40;100.00
28310;BME280;15571;50.974;13.936;2022-10-18T05:58:14;101039.81;;;14.45;100.00
28310;BME280;15571;50.974;13.936;2022-10-18T06:01:22;101034.50;;;14.48;100.00
28310;BME280;15571;50.974;13.936;2022-10-18T06:04:27;101044.16;;;14.52;100.00
28310;BME280;15571;50.974;13.936;2022-10-18T06:07:31;101038.88;;;14.51;100.00
28310;BME280;15571;50.974;13.936;2022-10-18T06:10:34;101042.38;;;14.53;100.00
28310;BME280;15571;50.974;13.936;2022-10-18T06:13:40;101032.72;;;14.53;100.00
28310;BME280;15571;50.974;13.936;2022-10-18T06:16:43;101020.41;;;14.57;100.00
28310;BME280;15571;50.974;13.936;2022-10-18T06:19:45;101002.88;;;14.54;100.00
28310;BME280;15571;50.974;13.936;2022-10-18T06:22:52;100995.84;;;14.52;100.00
28310;BME280;15571;50.974;13.936;2022-10-18T06:25:57;100990.63;;;14.48;100.00
28310;BME280;15571;50.974;13.936;2022-10-18T06:29:00;100999.38;;;14.49;100.00
28310;BME280;15571;50.974;13.936;2022-10-18T06:32:05;101007.31;;;14.46;100.00
28310;BME280;15571;50.974;13.936;2022-10-18T06:35:08;101024.81;;;14.52;100.00
28310;BME280;15571;50.974;13.936;2022-10-18T06:38:12;101020.41;;;14.54;100.00
28310;BME280;15571;50.974;13.936;2022-10-18T06:41:18;101018.66;;;14.53;100.00
28310;BME280;15571;50.974;13.936;2022-10-18T06:44:22;101007.22;;;14.57;100.00
28310;BME280;15571;50.974;13.936;2022-10-18T06:47:27;101008.91;;;14.61;100.00
28310;BME280;15571;50.974;13.936;2022-10-18T06:50:30;101016.81;;;14.64;100.00
28310;BME280;15571;50.974;13.936;2022-10-18T06:53:35;101018.56;;;14.68;100.00
28310;BME280;15571;50.974;13.936;2022-10-18T06:56:43;101029.94;;;14.72;100.00
28310;BME280;15571;50.974;13.936;2022-10-18T06:59:48;101019.41;;;14.72;100.00
28310;BME280;15571;50.974;13.936;2022-10-18T07:02:52;101013.28;;;14.65;100.00
28310;BME280;15571;50.974;13.936;2022-10-18T07:05:59;101029.94;;;14.70;100.00
28310;BME280;15571;50.974;13.936;2022-10-18T07:09:04;101012.38;;;14.71;100.00
28310;BME280;15571;50.974;13.936;2022-10-18T07:12:07;101009.72;;;14.75;100.00
28310;BME280;15571;50.974;13.936;2022-10-18T07:15:11;101000.91;;;14.76;100.00
28310;BME280;15571;50.974;13.936;2022-10-18T07:18:14;100998.22;;;14.79;100.00
28310;BME280;15571;50.974;13.936;2022-10-18T07:21:19;100987.63;;;14.86;100.00
28310;BME280;15571;50.974;13.936;2022-10-18T07:24:25;101003.41;;;14.90;100.00
28310;BME280;15571;50.974;13.936;2022-10-18T07:27:27;101007.75;;;14.93;100.00
28310;BME280;15571;50.974;13.936;2022-10-18T07:30:32;101011.25;;;14.95;100.00
28310;BME280;15571;50.974;13.936;2022-10-18T07:33:35;101013.91;;;14.95;100.00
28310;BME280;15571;50.974;13.936;2022-10-18T07:36:39;101012.13;;;14.97;100.00
28310;BME280;15571;50.974;13.936;2022-10-18T07:39:45;101011.22;;;15.00;100.00
28310;BME280;15571;50.974;13.936;2022-10-18T07:42:50;101005.03;;;15.01;100.00
28310;BME280;15571;50.974;13.936;2022-10-18T07:45:53;101005.00;;;15.04;100.00
28310;BME280;15571;50.974;13.936;2022-10-18T07:48:56;101010.25;;;15.08;100.00
28310;BME280;15571;50.974;13.936;2022-10-18T07:52:04;101010.25;;;15.08;100.00
28310;BME280;15571;50.974;13.936;2022-10-18T07:55:11;101007.56;;;15.13;100.00
28310;BME280;15571;50.974;13.936;2022-10-18T07:58:18;101008.38;;;15.17;100.00
28310;BME280;15571;50.974;13.936;2022-10-18T08:01:22;101013.59;;;15.20;100.00
28310;BME280;15571;50.974;13.936;2022-10-18T08:04:25;101007.50;;;15.16;100.00
28310;BME280;15571;50.974;13.936;2022-10-18T08:07:31;100998.66;;;15.19;100.00
28310;BME280;15571;50.974;13.936;2022-10-18T08:10:35;100993.31;;;15.25;100.00
28310;BME280;15571;50.974;13.936;2022-10-18T08:13:38;100993.28;;;15.30;100.00
28310;BME280;15571;50.974;13.936;2022-10-18T08:16:40;101000.22;;;15.35;100.00
28310;BME280;15571;50.974;13.936;2022-10-18T08:19:43;100991.38;;;15.41;100.00
28310;BME280;15571;50.974;13.936;2022-10-18T08:22:51;100997.50;;;15.41;100.00
28310;BME280;15571;50.974;13.936;2022-10-18T08:25:55;100997.47;;;15.45;100.00
28310;BME280;15571;50.974;13.936;2022-10-18T08:28:57;101000.97;;;15.47;100.00
28310;BME280;15571;50.974;13.936;2022-10-18T08:32:02;101005.28;;;15.51;100.00
28310;BME280;15571;50.974;13.936;2022-10-18T08:35:05;101000.00;;;15.54;100.00
28310;BME280;15571;50.974;13.936;2022-10-18T08:38:11;100963.94;;;15.53;100.00
28310;BME280;15571;50.974;13.936;2022-10-18T08:41:35;100976.25;;;15.54;100.00
28310;BME280;15571;50.974;13.936;2022-10-18T08:44:45;100956.81;;;15.58;100.00
28310;BME280;15571;50.974;13.936;2022-10-18T08:47:48;100936.47;;;15.66;100.00
28310;BME280;15571;50.974;13.936;2022-10-18T08:50:55;100933.91;;;15.62;100.00
28310;BME280;15571;50.974;13.936;2022-10-18T08:54:03;100942.59;;;15.68;100.00
28310;BME280;15571;50.974;13.936;2022-10-18T08:57:13;100950.41;;;15.76;100.00
28310;BME280;15571;50.974;13.936;2022-10-18T09:00:19;100940.66;;;15.80;100.00
28310;BME280;15571;50.974;13.936;2022-10-18T09:03:46;100938.88;;;15.85;100.00
28310;BME280;15571;50.974;13.936;2022-10-18T09:07:03;100929.94;;;15.92;100.00
28310;BME280;15571;50.974;13.936;2022-10-18T09:10:16;100932.50;;;15.97;100.00
28310;BME280;15571;50.974;13.936;2022-10-18T09:13:48;100931.53;;;16.02;100.00
28310;BME280;15571;50.974;13.936;2022-10-18T09:17:06;100926.13;;;16.09;100.00
28310;BME280;15571;50.974;13.936;2022-10-18T09:20:22;100919.00;;;16.15;100.00
28310;BME280;15571;50.974;13.936;2022-10-18T09:23:33;100925.09;;;16.19;100.00
28310;BME280;15571;50.974;13.936;2022-10-18T09:26:46;100920.59;;;16.24;100.00
28310;BME280;15571;50.974;13.936;2022-10-18T09:30:01;100921.50;;;16.23;100.00
28310;BME280;15571;50.974;13.936;2022-10-18T09:33:22;100910.03;;;16.24;100.00
28310;BME280;15571;50.974;13.936;2022-10-18T09:36:42;100902.03;;;16.27;100.00
28310;BME280;15571;50.974;13.936;2022-10-18T09:40:01;100900.06;;;16.39;100.00
28310;BME280;15571;50.974;13.936;2022-10-18T09:43:14;100896.44;;;16.44;100.00
28310;BME280;15571;50.974;13.936;2022-10-18T09:46:31;100897.25;;;16.48;100.00
28310;BME280;15571;50.974;13.936;2022-10-18T09:50:18;100890.13;;;16.53;100.00
28310;BME280;15571;50.974;13.936;2022-10-18T09:53:33;100887.31;;;16.61;100.00
28310;BME280;15571;50.974;13.936;2022-10-18T09:56:42;100888.16;;;16.64;100.00
28310;BME280;15571;50.974;13.936;2022-10-18T09:59:48;100887.19;;;16.67;100.00
28310;BME280;15571;50.974;13.936;2022-10-18T10:02:54;100872.28;;;16.64;100.00
28310;BME280;15571;50.974;13.936;2022-10-18T10:06:25;100873.09;;;16.68;100.00
28310;BME280;15571;50.974;13.936;2022-10-18T10:10:04;100865.06;;;16.73;100.00
28310;BME280;15571;50.974;13.936;2022-10-18T10:13:15;100857.97;;;16.75;100.00
28310;BME280;15571;50.974;13.936;2022-10-18T10:16:33;100846.47;;;16.77;100.00
28310;BME280;15571;50.974;13.936;2022-10-18T10:23:51;100843.13;;;16.69;100.00
28310;BME280;15571;50.974;13.936;2022-10-18T10:27:03;100839.56;;;16.69;100.00
28310;BME280;15571;50.974;13.936;2022-10-18T10:30:29;100843.06;;;16.71;100.00
28310;BME280;15571;50.974;13.936;2022-10-18T10:33:44;100834.25;;;16.72;100.00
28310;BME280;15571;50.974;13.936;2022-10-18T10:37:22;100826.25;;;16.75;100.00
28310;BME280;15571;50.974;13.936;2022-10-18T10:40:35;100826.97;;;16.81;100.00
28310;BME280;15571;50.974;13.936;2022-10-18T10:44:11;100833.00;;;16.88;100.00
28310;BME280;15571;50.974;13.936;2022-10-18T10:47:36;100832.91;;;16.94;100.00
28310;BME280;15571;50.974;13.936;2022-10-18T10:50:54;100835.47;;;16.98;100.00
28310;BME280;15571;50.974;13.936;2022-10-18T10:54:00;100832.69;;;17.04;100.00
28310;BME280;15571;50.974;13.936;2022-10-18T10:57:26;100837.88;;;17.08;100.00
28310;BME280;15571;50.974;13.936;2022-10-18T11:00:45;100842.41;;;17.03;100.00
28310;BME280;15571;50.974;13.936;2022-10-18T11:03:56;100857.31;;;17.06;100.00
28310;BME280;15571;50.974;13.936;2022-10-18T15:11:07;101035.56;;;16.48;100.00
28310;BME280;15571;50.974;13.936;2022-10-18T15:14:15;101031.22;;;16.44;100.00
28310;BME280;15571;50.974;13.936;2022-10-18T15:17:23;101039.06;;;16.49;100.00
28310;BME280;15571;50.974;13.936;2022-10-18T15:20:37;101035.72;;;16.39;100.00
28310;BME280;15571;50.974;13.936;2022-10-18T15:23:44;101027.91;;;16.31;100.00
28310;BME280;15571;50.974;13.936;2022-10-18T15:26:48;101034.94;;;16.32;100.00
28310;BME280;15571;50.974;13.936;2022-10-18T15:29:53;101029.66;;;16.32;100.00
28310;BME280;15571;50.974;13.936;2022-10-18T15:33:18;101024.38;;;16.32;100.00
28310;BME280;15571;50.974;13.936;2022-10-18T15:36:29;101031.34;;;16.37;100.00
28310;BME280;15571;50.974;13.936;2022-10-18T15:39:38;101038.34;;;16.39;100.00
28310;BME280;15571;50.974;13.936;2022-10-18T15:42:48;101036.63;;;16.37;100.00
28310;BME280;15571;50.974;13.936;2022-10-18T15:46:15;101035.78;;;16.33;100.00
28310;BME280;15571;50.974;13.936;2022-10-18T15:49:57;101034.94;;;16.32;100.00
28310;BME280;15571;50.974;13.936;2022-10-18T15:53:22;101041.97;;;16.33;100.00
28310;BME280;15571;50.974;13.936;2022-10-18T15:56:35;101049.84;;;16.35;100.00
28310;BME280;15571;50.974;13.936;2022-10-18T15:59:51;101049.91;;;16.33;100.00
28310;BME280;15571;50.974;13.936;2022-10-18T16:03:03;101053.50;;;16.28;100.00
28310;BME280;15571;50.974;13.936;2022-10-18T16:06:11;101055.19;;;16.32;100.00
28310;BME280;15571;50.974;13.936;2022-10-18T16:09:19;101062.25;;;16.31;100.00
28310;BME280;15571;50.974;13.936;2022-10-18T16:12:25;101062.22;;;16.34;100.00
28310;BME280;15571;50.974;13.936;2022-10-18T16:15:43;101072.84;;;16.30;100.00
28310;BME280;15571;50.974;13.936;2022-10-18T16:18:51;101081.72;;;16.26;100.00
28310;BME280;15571;50.974;13.936;2022-10-18T16:22:02;101073.75;;;16.27;100.00
28310;BME280;15571;50.974;13.936;2022-10-18T16:25:09;101082.63;;;16.22;100.00
28310;BME280;15571;50.974;13.936;2022-10-18T16:28:30;101086.16;;;16.22;100.00
28310;BME280;15571;50.974;13.936;2022-10-18T16:31:37;101087.09;;;16.20;100.00
28310;BME280;15571;50.974;13.936;2022-10-18T16:34:46;101081.81;;;16.20;100.00
28310;BME280;15571;50.974;13.936;2022-10-18T16:37:52;101089.75;;;16.18;100.00
28310;BME280;15571;50.974;13.936;2022-10-18T16:40:55;101095.91;;;16.17;100.00
28310;BME280;15571;50.974;13.936;2022-10-18T16:44:06;101087.16;;;16.15;100.00
28310;BME280;15571;50.974;13.936;2022-10-18T16:47:16;101089.81;;;16.15;100.00
28310;BME280;15571;50.974;13.936;2022-10-18T16:50:19;101099.47;;;16.14;100.00
28310;BME280;15571;50.974;13.936;2022-10-18T16:53:22;101100.41;;;16.12;100.00
28310;BME280;15571;50.974;13.936;2022-10-18T16:56:28;101101.31;;;16.11;100.00
28310;BME280;15571;50.974;13.936;2022-10-18T16:59:54;101096.91;;;16.11;100.00
28310;BME280;15571;50.974;13.936;2022-10-18T17:03:01;101103.94;;;16.11;100.00
28310;BME280;15571;50.974;13.936;2022-10-18T17:06:15;101099.56;;;16.10;100.00
28310;BME280;15571;50.974;13.936;2022-10-18T17:09:20;101107.50;;;16.08;100.00
28310;BME280;15571;50.974;13.936;2022-10-18T17:12:25;101119.81;;;16.08;100.00
28310;BME280;15571;50.974;13.936;2022-10-18T17:15:28;101119.81;;;16.08;100.00
28310;BME280;15571;50.974;13.936;2022-10-18T17:22:31;101112.81;;;16.05;100.00
28310;BME280;15571;50.974;13.936;2022-10-18T17:25:34;101118.13;;;16.03;100.00
28310;BME280;15571;50.974;13.936;2022-10-18T17:28:39;101120.78;;;16.02;100.00
28310;BME280;15571;50.974;13.936;2022-10-18T17:31:42;101121.72;;;15.98;100.00
28310;BME280;15571;50.974;13.936;2022-10-18T17:34:46;101118.19;;;15.97;100.00
28310;BME280;15571;50.974;13.936;2022-10-18T17:37:57;101123.53;;;15.94;100.00
28310;BME280;15571;50.974;13.936;2022-10-18T17:41:13;101122.69;;;15.92;100.00
28310;BME280;15571;50.974;13.936;2022-10-18T17:44:18;101135.03;;;15.90;100.00
28310;BME280;15571;50.974;13.936;2022-10-18T17:47:24;101130.63;;;15.89;100.00
28310;BME280;15571;50.974;13.936;2022-10-18T17:50:50;101127.16;;;15.87;100.00
28310;BME280;15571;50.974;13.936;2022-10-18T17:53:54;101122.78;;;15.86;100.00
28310;BME280;15571;50.974;13.936;2022-10-18T17:57:10;101126.28;;;15.83;100.00
28310;BME280;15571;50.974;13.936;2022-10-18T18:00:16;101125.41;;;15.83;100.00
28310;BME280;15571;50.974;13.936;2022-10-18T18:03:31;101116.63;;;15.81;100.00
28310;BME280;15571;50.974;13.936;2022-10-18T18:06:37;101114.88;;;15.80;100.00
28310;BME280;15571;50.974;13.936;2022-10-18T22:28:18;101123.47;;;14.04;100.00
28310;BME280;15571;50.974;13.936;2022-10-18T22:31:27;101126.09;;;14.07;100.00
28310;BME280;15571;50.974;13.936;2022-10-18T22:34:31;101126.09;;;14.09;100.00
28310;BME280;15571;50.974;13.936;2022-10-18T22:37:33;101127.84;;;14.10;100.00
28310;BME280;15571;50.974;13.936;2022-10-18T22:40:36;101134.84;;;14.11;100.00
28310;BME280;15571;50.974;13.936;2022-10-18T22:43:40;101129.59;;;14.11;100.00
28310;BME280;15571;50.974;13.936;2022-10-18T22:46:43;101140.09;;;14.12;100.00
28310;BME280;15571;50.974;13.936;2022-10-18T22:49:48;101131.38;;;14.10;100.00
28310;BME280;15571;50.974;13.936;2022-10-18T22:52:51;101133.09;;;14.11;100.00
28310;BME280;15571;50.974;13.936;2022-10-18T22:55:55;101132.19;;;14.12;100.00
28310;BME280;15571;50.974;13.936;2022-10-18T22:58:59;101125.19;;;14.11;100.00
28310;BME280;15571;50.974;13.936;2022-10-18T23:02:04;101126.06;;;14.12;100.00
28310;BME280;15571;50.974;13.936;2022-10-18T23:05:09;101124.31;;;14.12;100.00
28310;BME280;15571;50.974;13.936;2022-10-18T23:08:17;101124.31;;;14.12;100.00
28310;BME280;15571;50.974;13.936;2022-10-18T23:11:20;101126.94;;;14.12;100.00
28310;BME280;15571;50.974;13.936;2022-10-18T23:14:24;101133.97;;;14.13;100.00
28310;BME280;15571;50.974;13.936;2022-10-18T23:17:28;101132.22;;;14.14;100.00
28310;BME280;15571;50.974;13.936;2022-10-18T23:20:30;101128.72;;;14.12;100.00
28310;BME280;15571;50.974;13.936;2022-10-18T23:23:38;101123.47;;;14.10;100.00
28310;BME280;15571;50.974;13.936;2022-10-18T23:26:41;101129.59;;;14.08;100.00
28310;BME280;15571;50.974;13.936;2022-10-18T23:29:48;101133.13;;;14.05;100.00
28310;BME280;15571;50.974;13.936;2022-10-18T23:32:51;101142.78;;;14.03;100.00
28310;BME280;15571;50.974;13.936;2022-10-18T23:35:53;101139.28;;;14.01;100.00
28310;BME280;15571;50.974;13.936;2022-10-18T23:38:56;101141.06;;;13.97;100.00
28310;BME280;15571;50.974;13.936;2022-10-18T23:41:59;101138.47;;;13.94;100.00
28310;BME280;15571;50.974;13.936;2022-10-18T23:45:05;101141.94;;;13.96;100.00
28310;BME280;15571;50.974;13.936;2022-10-18T23:48:13;101136.69;;;13.95;100.00
28310;BME280;15571;50.974;13.936;2022-10-18T23:51:18;101133.19;;;13.93;100.00
28310;BME280;15571;50.974;13.936;2022-10-18T23:54:21;101146.34;;;13.96;100.00
28310;BME280;15571;50.974;13.936;2022-10-18T23:57:24;101140.22;;;13.95;100.00
